Time;durP1;ratioP1;P1;durP2;ratioP2;P2;SDS_P1;SDS_P2;PMS_P1;PMS_P2;Temp;Humidity;BMP_temperature;BMP_pressure;BME280_temperature;BME280_humidity;BME280_pressure;Samples;Min_cycle;Max_cycle;Signal;HPM_P1;HPM_P2
2022/05/21 00:01:54;;;;;;;4.13;2.70;;;;;;;;;;4954250;29;20058;-72
2022/05/21 00:04:30;;;;;;;6.70;2.67;;;;;;;;;;4953992;29;20055;-72
2022/05/21 00:07:05;;;;;;;3.92;3.42;;;;;;;;;;4954108;29;20506;-72
2022/05/21 00:09:36;;;;;;;12.50;4.90;;;;;;;;;;4954593;29;20043;-72
2022/05/21 00:12:10;;;;;;;6.22;2.78;;;;;;;;;;4954689;29;20059;-72
2022/05/21 00:14:45;;;;;;;5.65;3.13;;;;;;;;;;4955330;29;20055;-73
2022/05/21 00:17:18;;;;;;;4.72;3.45;;;;;;;;;;4955048;29;20098;-72
2022/05/21 00:19:51;;;;;;;3.97;3.08;;;;;;;;;;4955394;29;20066;-72
2022/05/21 00:22:22;;;;;;;7.95;3.00;;;;;;;;;;4954975;29;20051;-72
2022/05/21 00:24:53;;;;;;;7.93;3.00;;;;;;;;;;4954812;29;20054;-72
2022/05/21 00:27:22;;;;;;;5.20;3.55;;;;;;;;;;4956126;28;20138;-72
2022/05/21 00:29:52;;;;;;;12.60;3.30;;;;;;;;;;4957321;29;20047;-72
2022/05/21 00:32:22;;;;;;;6.97;3.47;;;;;;;;;;4958211;29;20405;-72
2022/05/21 00:34:52;;;;;;;6.45;3.03;;;;;;;;;;4956645;29;20086;-73
2022/05/21 00:37:23;;;;;;;6.45;3.30;;;;;;;;;;4958064;29;20094;-72
2022/05/21 00:39:51;;;;;;;6.82;3.50;;;;;;;;;;4958109;29;20039;-72
2022/05/21 00:42:20;;;;;;;7.97;2.97;;;;;;;;;;4958647;29;20051;-72
2022/05/21 00:44:48;;;;;;;10.27;3.67;;;;;;;;;;4957878;29;20122;-72
2022/05/21 00:47:17;;;;;;;7.50;3.65;;;;;;;;;;4958386;29;20051;-72
2022/05/21 00:49:45;;;;;;;6.57;3.78;;;;;;;;;;4956851;29;20082;-72
2022/05/21 00:52:17;;;;;;;8.20;4.03;;;;;;;;;;4957258;29;20059;-72
2022/05/21 00:54:48;;;;;;;7.05;4.22;;;;;;;;;;4958208;29;20061;-72
2022/05/21 00:57:43;;;;;;;11.00;4.30;;;;;;;;;;4957754;29;20061;-72
2022/05/21 01:00:16;;;;;;;18.70;6.90;;;;;;;;;;4957154;29;20434;-72
2022/05/21 01:02:52;;;;;;;13.93;6.68;;;;;;;;;;4956383;29;20102;-75
2022/05/21 01:05:23;;;;;;;10.07;4.25;;;;;;;;;;4957786;29;20062;-74
2022/05/21 01:07:55;;;;;;;9.02;3.95;;;;;;;;;;4956347;29;20058;-74
2022/05/21 01:10:27;;;;;;;13.05;5.03;;;;;;;;;;4958000;29;20043;-73
2022/05/21 01:12:57;;;;;;;7.63;4.85;;;;;;;;;;4956063;29;20499;-69
2022/05/21 01:15:36;;;;;;;10.45;4.80;;;;;;;;;;4956594;29;20460;-70
2022/05/21 01:18:07;;;;;;;11.88;4.68;;;;;;;;;;4956969;29;20391;-69
2022/05/21 01:20:43;;;;;;;8.02;5.50;;;;;;;;;;4957696;29;20447;-69
2022/05/21 01:23:12;;;;;;;10.50;5.50;;;;;;;;;;4957588;29;20070;-69
2022/05/21 01:25:41;;;;;;;12.52;5.22;;;;;;;;;;4957178;29;20059;-69
2022/05/21 01:28:13;;;;;;;14.70;6.07;;;;;;;;;;4955935;29;20051;-69
2022/05/21 01:30:55;;;;;;;20.77;6.43;;;;;;;;;;4957054;29;20126;-69
2022/05/21 01:33:32;;;;;;;14.27;5.05;;;;;;;;;;4957477;29;20059;-69
2022/05/21 01:36:00;;;;;;;11.75;4.85;;;;;;;;;;4940078;29;20075;-71
2022/05/21 01:38:30;;;;;;;9.02;4.85;;;;;;;;;;4919008;29;20032;-71
2022/05/21 01:41:00;;;;;;;11.68;4.53;;;;;;;;;;4919045;29;20048;-71
2022/05/21 01:46:19;;;;;;;8.98;5.00;;;;;;;;;;4918792;29;20261;-71
2022/05/21 01:48:48;;;;;;;5.60;3.83;;;;;;;;;;4918992;29;20492;-72
2022/05/21 01:51:16;;;;;;;8.63;4.70;;;;;;;;;;4918978;29;20067;-72
2022/05/21 01:53:43;;;;;;;12.18;5.40;;;;;;;;;;4918196;29;20059;-71
2022/05/21 01:56:12;;;;;;;13.93;5.95;;;;;;;;;;4933826;29;20056;-71
2022/05/21 01:58:42;;;;;;;10.18;4.85;;;;;;;;;;4918674;29;20138;-71
2022/05/21 02:01:10;;;;;;;10.02;4.63;;;;;;;;;;4918773;29;20051;-70
2022/05/21 02:03:39;;;;;;;10.63;3.92;;;;;;;;;;4918406;29;20111;-70
2022/05/21 02:06:08;;;;;;;6.43;4.10;;;;;;;;;;4918406;29;20063;-71
2022/05/21 02:08:35;;;;;;;10.52;5.43;;;;;;;;;;4917908;29;20507;-70
2022/05/21 02:11:04;;;;;;;11.05;4.53;;;;;;;;;;4918669;29;20131;-71
2022/05/21 02:13:33;;;;;;;6.68;4.88;;;;;;;;;;4918494;29;20067;-71
2022/05/21 02:16:02;;;;;;;13.43;5.13;;;;;;;;;;4918227;29;20063;-71
2022/05/21 02:18:31;;;;;;;6.78;4.15;;;;;;;;;;4918446;29;20048;-71
2022/05/21 02:20:59;;;;;;;8.30;3.83;;;;;;;;;;4917901;29;20099;-71
2022/05/21 02:23:27;;;;;;;10.07;5.28;;;;;;;;;;4918462;29;20048;-72
2022/05/21 02:25:59;;;;;;;6.32;4.72;;;;;;;;;;4918241;29;20115;-72
2022/05/21 02:28:29;;;;;;;11.05;4.10;;;;;;;;;;4918523;29;20412;-72
2022/05/21 02:30:57;;;;;;;11.00;4.28;;;;;;;;;;4917728;29;20472;-72
2022/05/21 02:33:27;;;;;;;12.30;5.22;;;;;;;;;;4918334;29;20522;-72
2022/05/21 02:35:56;;;;;;;12.18;4.68;;;;;;;;;;4918129;29;20086;-73
2022/05/21 02:41:14;;;;;;;6.85;4.13;;;;;;;;;;4956327;29;20051;-72
2022/05/21 02:43:44;;;;;;;11.00;4.47;;;;;;;;;;4956091;29;20533;-73
2022/05/21 02:46:15;;;;;;;5.75;3.65;;;;;;;;;;4956596;29;20109;-73
2022/05/21 02:48:45;;;;;;;11.90;4.18;;;;;;;;;;4955697;29;20559;-72
2022/05/21 02:51:14;;;;;;;8.00;4.60;;;;;;;;;;4955426;28;20058;-75
2022/05/21 02:53:43;;;;;;;17.42;4.72;;;;;;;;;;4954637;29;20059;-75
2022/05/21 02:56:14;;;;;;;10.52;5.18;;;;;;;;;;4955809;29;20138;-75
2022/05/21 02:58:42;;;;;;;10.02;5.07;;;;;;;;;;4955850;29;20205;-75
2022/05/21 03:01:10;;;;;;;10.38;5.22;;;;;;;;;;4955960;29;20043;-75
2022/05/21 03:03:41;;;;;;;11.07;5.30;;;;;;;;;;4956371;29;20057;-75
2022/05/21 03:06:08;;;;;;;10.13;5.50;;;;;;;;;;4955829;29;20047;-74
2022/05/21 03:11:27;;;;;;;15.60;5.00;;;;;;;;;;4955675;29;20411;-74
2022/05/21 03:13:55;;;;;;;14.15;6.32;;;;;;;;;;4955810;29;20130;-75
2022/05/21 03:16:23;;;;;;;9.43;4.32;;;;;;;;;;4955446;29;20039;-75
2022/05/21 03:18:53;;;;;;;12.50;4.38;;;;;;;;;;4955930;29;20052;-75
2022/05/21 03:21:23;;;;;;;14.48;5.50;;;;;;;;;;4954984;29;20105;-75
2022/05/21 03:23:53;;;;;;;14.77;5.63;;;;;;;;;;4955674;29;20117;-74
2022/05/21 03:26:23;;;;;;;10.02;4.90;;;;;;;;;;4955791;29;20102;-72
2022/05/21 03:28:52;;;;;;;6.60;5.15;;;;;;;;;;4955184;29;20066;-72
2022/05/21 03:31:21;;;;;;;13.05;6.30;;;;;;;;;;4938748;29;20078;-72
2022/05/21 03:33:50;;;;;;;9.73;4.57;;;;;;;;;;4955296;29;20059;-72
2022/05/21 03:36:18;;;;;;;9.82;4.70;;;;;;;;;;4955136;29;20064;-72
2022/05/21 03:38:46;;;;;;;17.25;5.70;;;;;;;;;;4954904;29;20093;-75
2022/05/21 03:41:15;;;;;;;7.47;5.10;;;;;;;;;;4955287;29;20051;-75
2022/05/21 03:43:44;;;;;;;12.30;5.07;;;;;;;;;;4955061;29;20051;-75
2022/05/21 03:46:13;;;;;;;7.30;5.13;;;;;;;;;;4955661;29;20113;-75
2022/05/21 03:48:41;;;;;;;8.38;4.22;;;;;;;;;;4955580;29;20189;-75
2022/05/21 03:51:10;;;;;;;8.85;4.55;;;;;;;;;;4954659;29;20047;-74
2022/05/21 03:53:39;;;;;;;7.35;4.22;;;;;;;;;;4955539;29;20079;-74
2022/05/21 03:56:08;;;;;;;10.05;4.43;;;;;;;;;;4954868;29;20495;-74
2022/05/21 03:58:39;;;;;;;12.57;4.10;;;;;;;;;;4939637;29;20074;-74
2022/05/21 04:01:08;;;;;;;8.40;4.60;;;;;;;;;;4956039;28;20058;-74
2022/05/21 04:03:38;;;;;;;7.97;4.40;;;;;;;;;;4959049;29;20475;-74
2022/05/21 04:06:07;;;;;;;9.23;4.43;;;;;;;;;;4958209;29;20438;-74
2022/05/21 04:08:36;;;;;;;12.38;4.68;;;;;;;;;;4959183;29;20414;-74
2022/05/21 04:11:04;;;;;;;10.52;4.53;;;;;;;;;;4959003;29;20051;-74
2022/05/21 04:13:34;;;;;;;4.60;4.18;;;;;;;;;;4942238;29;20074;-74
2022/05/21 04:16:03;;;;;;;23.77;5.00;;;;;;;;;;4958815;29;20081;-74
2022/05/21 04:18:31;;;;;;;6.80;4.07;;;;;;;;;;4958587;29;20045;-74
2022/05/21 04:21:04;;;;;;;8.25;3.97;;;;;;;;;;4941686;29;20043;-74
2022/05/21 04:23:33;;;;;;;7.75;4.10;;;;;;;;;;4958552;29;20472;-74
2022/05/21 04:26:02;;;;;;;6.90;4.10;;;;;;;;;;4959457;29;20059;-73
2022/05/21 04:28:31;;;;;;;13.02;4.20;;;;;;;;;;4957166;29;20078;-75
2022/05/21 04:31:00;;;;;;;4.85;3.45;;;;;;;;;;4957503;29;20070;-74
2022/05/21 04:33:28;;;;;;;10.55;4.20;;;;;;;;;;4958408;29;20051;-74
2022/05/21 04:38:42;;;;;;;6.47;4.05;;;;;;;;;;4920232;29;20063;-74
2022/05/21 04:41:10;;;;;;;12.15;4.32;;;;;;;;;;4919950;29;20052;-74
2022/05/21 04:43:40;;;;;;;7.00;4.00;;;;;;;;;;4920450;29;20048;-74
2022/05/21 04:46:11;;;;;;;6.95;3.80;;;;;;;;;;4917138;29;20076;-74
2022/05/21 04:48:41;;;;;;;6.32;3.80;;;;;;;;;;4935051;29;20071;-74
2022/05/21 04:51:28;;;;;;;8.65;3.53;;;;;;;;;;4919127;29;20048;-73
2022/05/21 04:53:57;;;;;;;9.80;4.30;;;;;;;;;;4919653;29;20055;-73
2022/05/21 04:56:26;;;;;;;9.27;4.93;;;;;;;;;;4919943;29;20052;-72
2022/05/21 04:59:11;;;;;;;8.82;4.00;;;;;;;;;;4934767;29;20098;-73
2022/05/21 05:01:40;;;;;;;5.00;3.67;;;;;;;;;;4919924;29;20056;-74
2022/05/21 05:04:09;;;;;;;10.90;3.58;;;;;;;;;;4919187;29;20372;-73
2022/05/21 05:06:39;;;;;;;4.70;3.67;;;;;;;;;;4914881;29;20539;-73
2022/05/21 05:09:09;;;;;;;4.82;3.10;;;;;;;;;;4916788;29;20072;-73
2022/05/21 05:11:39;;;;;;;7.15;3.55;;;;;;;;;;4928398;29;20041;-74
2022/05/21 05:14:07;;;;;;;4.70;3.72;;;;;;;;;;4899565;29;20059;-74
2022/05/21 05:16:37;;;;;;;9.85;4.30;;;;;;;;;;4903870;29;20118;-74
2022/05/21 05:19:04;;;;;;;12.57;4.63;;;;;;;;;;4918861;29;20096;-76
2022/05/21 05:21:34;;;;;;;8.55;4.28;;;;;;;;;;4917267;29;20100;-72
2022/05/21 05:24:04;;;;;;;7.05;4.50;;;;;;;;;;4918721;29;20059;-75
2022/05/21 05:26:33;;;;;;;6.60;5.13;;;;;;;;;;4919177;29;20048;-75
2022/05/21 05:29:01;;;;;;;6.55;4.00;;;;;;;;;;4918849;29;20407;-75
2022/05/21 05:31:29;;;;;;;6.97;4.40;;;;;;;;;;4918508;29;20056;-74
2022/05/21 05:33:57;;;;;;;8.20;4.10;;;;;;;;;;4917894;29;20123;-75
2022/05/21 05:36:28;;;;;;;5.18;3.50;;;;;;;;;;4925323;29;20463;-77
2022/05/21 05:38:59;;;;;;;9.30;4.53;;;;;;;;;;4957271;29;20137;-76
2022/05/21 05:41:30;;;;;;;9.13;4.00;;;;;;;;;;4956736;29;20506;-75
2022/05/21 05:43:58;;;;;;;10.13;4.80;;;;;;;;;;4956990;29;20141;-75
2022/05/21 05:46:26;;;;;;;11.60;4.28;;;;;;;;;;4957174;29;20047;-75
2022/05/21 05:48:56;;;;;;;12.13;4.40;;;;;;;;;;4956545;29;20047;-75
2022/05/21 05:51:24;;;;;;;7.25;4.50;;;;;;;;;;4956828;29;20087;-76
2022/05/21 05:53:53;;;;;;;8.27;4.90;;;;;;;;;;4957009;29;20051;-76
2022/05/21 05:56:22;;;;;;;8.80;4.50;;;;;;;;;;4957113;29;20129;-75
2022/05/21 06:01:38;;;;;;;15.50;5.25;;;;;;;;;;4957227;29;20122;-76
2022/05/21 06:04:08;;;;;;;6.35;4.22;;;;;;;;;;4955397;29;20051;-75
2022/05/21 06:06:37;;;;;;;8.10;6.28;;;;;;;;;;4956452;29;20506;-75
2022/05/21 06:09:05;;;;;;;7.28;5.57;;;;;;;;;;4957007;29;20057;-75
2022/05/21 06:11:37;;;;;;;8.52;4.68;;;;;;;;;;4956752;29;20043;-74
2022/05/21 06:14:09;;;;;;;5.47;4.90;;;;;;;;;;4956944;29;20530;-74
2022/05/21 06:16:37;;;;;;;10.63;4.80;;;;;;;;;;4938307;29;20354;-75
2022/05/21 06:19:06;;;;;;;6.32;4.72;;;;;;;;;;4955587;29;20047;-75
2022/05/21 06:21:35;;;;;;;5.70;5.03;;;;;;;;;;4954985;29;20462;-75
2022/05/21 06:24:05;;;;;;;6.10;5.43;;;;;;;;;;4954838;28;20085;-75
2022/05/21 06:26:33;;;;;;;8.80;5.00;;;;;;;;;;4955717;29;20055;-75
2022/05/21 06:29:02;;;;;;;5.82;4.90;;;;;;;;;;4956565;29;20495;-75
2022/05/21 06:31:31;;;;;;;7.57;5.72;;;;;;;;;;4956145;29;20047;-77
2022/05/21 06:33:59;;;;;;;8.48;5.93;;;;;;;;;;4956221;29;20043;-73
2022/05/21 06:36:28;;;;;;;12.07;5.25;;;;;;;;;;4956312;29;20114;-74
2022/05/21 06:38:57;;;;;;;9.55;5.32;;;;;;;;;;4953744;29;20058;-72
2022/05/21 06:41:31;;;;;;;9.57;4.95;;;;;;;;;;4947007;29;20071;-73
2022/05/21 06:44:01;;;;;;;6.72;6.05;;;;;;;;;;4947473;29;20056;-71
2022/05/21 06:46:29;;;;;;;5.88;4.97;;;;;;;;;;4946327;29;20418;-69
2022/05/21 06:48:58;;;;;;;7.72;5.13;;;;;;;;;;4949288;29;20331;-69
2022/05/21 06:51:26;;;;;;;5.40;4.65;;;;;;;;;;4947745;29;20506;-74
2022/05/21 06:53:55;;;;;;;8.05;4.40;;;;;;;;;;4948543;29;20039;-75
2022/05/21 06:56:25;;;;;;;11.13;6.13;;;;;;;;;;4949619;29;20035;-72
2022/05/21 06:58:54;;;;;;;8.13;4.93;;;;;;;;;;4951312;29;20036;-74
2022/05/21 07:01:24;;;;;;;11.80;4.55;;;;;;;;;;4948854;29;20075;-74
2022/05/21 07:03:52;;;;;;;8.00;5.43;;;;;;;;;;4944731;29;20059;-72
2022/05/21 07:09:08;;;;;;;7.45;4.88;;;;;;;;;;4946943;29;20075;-71
2022/05/21 07:11:37;;;;;;;8.60;5.35;;;;;;;;;;4944525;29;20538;-73
2022/05/21 07:14:05;;;;;;;8.65;5.88;;;;;;;;;;4945233;29;20056;-70
2022/05/21 07:16:36;;;;;;;12.73;5.18;;;;;;;;;;4943509;29;20059;-69
2022/05/21 07:19:03;;;;;;;7.63;5.03;;;;;;;;;;4942922;29;20133;-69
2022/05/21 07:21:32;;;;;;;7.15;4.80;;;;;;;;;;4947243;29;20043;-73
2022/05/21 07:24:02;;;;;;;5.85;4.95;;;;;;;;;;4946731;29;20130;-74
2022/05/21 07:26:31;;;;;;;8.77;4.82;;;;;;;;;;4928604;29;20046;-77
2022/05/21 07:28:59;;;;;;;8.80;4.95;;;;;;;;;;4944840;29;20051;-74
2022/05/21 07:31:27;;;;;;;10.15;5.03;;;;;;;;;;4946422;29;20052;-76
2022/05/21 07:33:56;;;;;;;9.35;4.70;;;;;;;;;;4947051;29;20517;-76
2022/05/21 07:36:25;;;;;;;9.65;4.68;;;;;;;;;;4950488;28;20110;-73
2022/05/21 07:38:53;;;;;;;8.13;5.20;;;;;;;;;;4954585;29;20066;-73
2022/05/21 07:41:23;;;;;;;9.70;5.60;;;;;;;;;;4953938;28;20414;-71
2022/05/21 07:43:54;;;;;;;8.88;5.45;;;;;;;;;;4953904;29;20055;-73
2022/05/21 07:46:23;;;;;;;10.13;6.55;;;;;;;;;;4953487;28;20047;-73
2022/05/21 07:48:53;;;;;;;10.30;5.63;;;;;;;;;;4953969;29;20110;-73
2022/05/21 07:51:22;;;;;;;11.05;4.88;;;;;;;;;;4954284;29;20414;-73
2022/05/21 07:53:51;;;;;;;9.23;4.97;;;;;;;;;;4954448;29;20056;-72
2022/05/21 07:56:19;;;;;;;11.77;5.22;;;;;;;;;;4949462;28;20070;-73
2022/05/21 07:58:49;;;;;;;9.52;5.30;;;;;;;;;;4952924;28;20058;-73
2022/05/21 08:01:18;;;;;;;6.35;4.97;;;;;;;;;;4950707;29;20039;-76
2022/05/21 08:03:47;;;;;;;8.73;4.53;;;;;;;;;;4951332;28;20117;-78
2022/05/21 08:06:16;;;;;;;7.63;5.32;;;;;;;;;;4932155;29;20071;-78
2022/05/21 08:08:45;;;;;;;6.28;5.10;;;;;;;;;;4952977;28;20602;-78
2022/05/21 08:11:13;;;;;;;5.82;5.22;;;;;;;;;;4952308;28;20502;-78
2022/05/21 08:13:43;;;;;;;7.75;4.15;;;;;;;;;;4952700;29;20061;-79
2022/05/21 08:16:14;;;;;;;7.82;5.10;;;;;;;;;;4960211;28;20411;-76
2022/05/21 08:18:43;;;;;;;5.93;4.28;;;;;;;;;;4970073;28;20057;-73
2022/05/21 08:21:12;;;;;;;12.02;5.82;;;;;;;;;;4983109;23;20082;-70
2022/05/21 08:29:14;;;;;;;7.95;5.05;;;;;;;;;;4993533;28;20046;-68
2022/05/21 08:31:45;;;;;;;4.82;3.83;;;;;;;;;;4997932;28;20088;-75
2022/05/21 08:34:14;;;;;;;7.57;4.40;;;;;;;;;;4981382;28;20111;-77
2022/05/21 08:36:43;;;;;;;9.15;4.25;;;;;;;;;;4997760;28;20046;-76
2022/05/21 08:39:11;;;;;;;7.32;3.58;;;;;;;;;;5000164;28;20054;-78
2022/05/21 08:41:46;;;;;;;8.93;4.75;;;;;;;;;;4999037;28;20042;-59
2022/05/21 08:44:42;;;;;;;5.78;3.65;;;;;;;;;;4995037;28;20136;-61
2022/05/21 08:47:20;;;;;;;6.00;4.72;;;;;;;;;;4961886;28;20465;-64
2022/05/21 08:49:48;;;;;;;9.20;3.85;;;;;;;;;;4977317;28;20067;-64
2022/05/21 08:52:28;;;;;;;13.70;4.78;;;;;;;;;;4976924;28;20081;-63
2022/05/21 08:55:06;;;;;;;8.05;4.05;;;;;;;;;;4960660;28;20101;-64
2022/05/21 08:58:00;;;;;;;7.22;3.95;;;;;;;;;;4974018;28;20505;-65
2022/05/21 09:00:37;;;;;;;11.88;3.53;;;;;;;;;;4922862;28;20498;-64
2022/05/21 09:03:11;;;;;;;7.22;3.30;;;;;;;;;;4988782;28;20137;-63
2022/05/21 09:05:42;;;;;;;12.75;3.50;;;;;;;;;;4994840;28;20461;-60
2022/05/21 09:08:30;;;;;;;6.32;3.70;;;;;;;;;;4978704;28;20064;-63
2022/05/21 09:11:06;;;;;;;6.47;3.00;;;;;;;;;;4995532;28;20042;-63
2022/05/21 09:13:46;;;;;;;10.02;3.20;;;;;;;;;;4979012;28;20544;-62
2022/05/21 09:19:06;;;;;;;11.70;3.20;;;;;;;;;;4995178;28;20088;-62
2022/05/21 09:21:35;;;;;;;6.30;3.40;;;;;;;;;;4994515;28;20112;-62
2022/05/21 09:24:07;;;;;;;10.68;3.33;;;;;;;;;;4977312;28;20388;-63
2022/05/21 09:26:42;;;;;;;10.80;3.08;;;;;;;;;;4994067;28;20528;-62
2022/05/21 09:29:20;;;;;;;6.30;2.92;;;;;;;;;;4994786;28;20089;-62
2022/05/21 09:31:48;;;;;;;12.98;4.07;;;;;;;;;;4995224;28;20057;-63
2022/05/21 09:34:33;;;;;;;7.63;3.78;;;;;;;;;;4994628;28;20047;-62
2022/05/21 09:37:03;;;;;;;10.48;2.85;;;;;;;;;;4994375;28;20057;-64
2022/05/21 09:39:38;;;;;;;6.68;3.53;;;;;;;;;;4992973;28;20398;-67
2022/05/21 09:45:22;;;;;;;11.27;3.10;;;;;;;;;;4995649;28;20051;-65
2022/05/21 09:48:16;;;;;;;9.32;3.17;;;;;;;;;;4995725;28;20070;-68
2022/05/21 09:50:58;;;;;;;8.48;3.13;;;;;;;;;;4989091;28;20068;-69
2022/05/21 09:53:39;;;;;;;5.10;2.38;;;;;;;;;;4995865;28;20050;-69
2022/05/21 09:56:20;;;;;;;5.65;2.47;;;;;;;;;;4976035;28;20117;-69
2022/05/21 09:59:13;;;;;;;4.85;2.50;;;;;;;;;;4972821;28;20050;-69
2022/05/21 10:01:44;;;;;;;4.93;2.20;;;;;;;;;;4980850;28;20132;-67
2022/05/21 10:04:18;;;;;;;6.40;2.45;;;;;;;;;;4993250;28;20038;-71
2022/05/21 10:06:53;;;;;;;7.28;2.75;;;;;;;;;;4993200;28;20121;-71
2022/05/21 10:13:07;;;;;;;11.60;3.22;;;;;;;;;;4994198;28;20073;-68
2022/05/21 10:15:43;;;;;;;8.15;3.65;;;;;;;;;;4995446;28;20073;-68
2022/05/21 10:18:49;;;;;;;10.00;3.10;;;;;;;;;;4978544;28;20101;-68
2022/05/21 10:22:00;;;;;;;8.32;2.78;;;;;;;;;;4995093;28;20077;-67
2022/05/21 10:24:49;;;;;;;4.75;2.20;;;;;;;;;;4977081;28;20453;-71
2022/05/21 10:27:39;;;;;;;5.80;2.47;;;;;;;;;;4994724;28;20058;-69
2022/05/21 10:30:34;;;;;;;4.70;3.03;;;;;;;;;;4992365;28;20133;-68
2022/05/21 10:33:37;;;;;;;8.13;2.90;;;;;;;;;;4994706;28;20133;-68
2022/05/21 10:36:43;;;;;;;9.20;3.78;;;;;;;;;;4993639;28;20046;-68
2022/05/21 10:39:39;;;;;;;6.40;2.92;;;;;;;;;;4941419;28;20058;-68
2022/05/21 10:42:28;;;;;;;5.45;2.58;;;;;;;;;;4975693;28;20094;-69
2022/05/21 10:45:21;;;;;;;10.88;2.88;;;;;;;;;;4975131;28;20047;-69
2022/05/21 10:48:05;;;;;;;8.88;2.63;;;;;;;;;;4965109;28;20050;-68
2022/05/21 10:50:45;;;;;;;6.88;2.72;;;;;;;;;;4974852;28;20146;-68
2022/05/21 10:53:30;;;;;;;10.60;2.80;;;;;;;;;;4975357;28;20101;-68
2022/05/21 10:56:16;;;;;;;11.25;3.28;;;;;;;;;;4974910;28;20454;-68
2022/05/21 10:58:55;;;;;;;8.98;3.20;;;;;;;;;;4958044;28;20060;-72
2022/05/21 11:01:46;;;;;;;11.05;3.13;;;;;;;;;;4975624;28;20533;-72
2022/05/21 11:04:36;;;;;;;7.80;2.58;;;;;;;;;;4975241;28;20107;-72
2022/05/21 11:07:10;;;;;;;7.13;2.78;;;;;;;;;;4974862;28;20055;-69
2022/05/21 11:09:42;;;;;;;8.00;2.75;;;;;;;;;;4975241;28;20077;-69
2022/05/21 11:12:18;;;;;;;7.03;3.25;;;;;;;;;;4992874;28;20050;-67
2022/05/21 11:14:49;;;;;;;6.03;2.83;;;;;;;;;;4991058;28;20050;-69
2022/05/21 11:17:39;;;;;;;8.13;2.75;;;;;;;;;;4993223;28;20094;-69
2022/05/21 11:20:16;;;;;;;13.27;3.13;;;;;;;;;;4992228;28;20081;-68
2022/05/21 11:22:59;;;;;;;10.27;3.55;;;;;;;;;;4994133;28;20065;-68
2022/05/21 11:25:36;;;;;;;11.07;3.17;;;;;;;;;;4993176;28;20054;-72
2022/05/21 11:28:14;;;;;;;7.57;2.85;;;;;;;;;;4993178;28;20106;-72
2022/05/21 11:30:46;;;;;;;6.07;2.70;;;;;;;;;;4976541;28;20073;-73
2022/05/21 11:37:20;;;;;;;9.70;3.00;;;;;;;;;;4977002;28;20178;-71
2022/05/21 11:39:13;;;;;;;6.35;3.30;;;;;;;;;;4991406;28;20091;-70
2022/05/21 11:41:53;;;;;;;8.70;2.80;;;;;;;;;;4990550;28;20058;-75
2022/05/21 11:44:58;;;;;;;9.57;2.70;;;;;;;;;;4992709;28;20444;-72
2022/05/21 11:47:27;;;;;;;9.93;3.35;;;;;;;;;;4992314;28;20101;-72
2022/05/21 11:49:57;;;;;;;11.70;3.03;;;;;;;;;;4991500;28;20057;-71
2022/05/21 11:52:26;;;;;;;9.25;2.83;;;;;;;;;;4992067;28;20504;-70
2022/05/21 11:54:53;;;;;;;8.30;3.30;;;;;;;;;;4990725;28;20517;-69
2022/05/21 11:57:39;;;;;;;6.28;2.90;;;;;;;;;;4991193;28;20557;-70
2022/05/21 12:00:24;;;;;;;7.07;2.30;;;;;;;;;;4990205;28;20054;-69
2022/05/21 12:02:54;;;;;;;12.05;2.70;;;;;;;;;;4990314;28;20125;-71
2022/05/21 12:05:46;;;;;;;8.40;2.17;;;;;;;;;;4989788;28;20042;-71
2022/05/21 12:08:34;;;;;;;4.10;2.20;;;;;;;;;;4991356;28;20046;-68
2022/05/21 12:11:20;;;;;;;5.30;2.30;;;;;;;;;;4990477;28;20055;-72
2022/05/21 12:14:06;;;;;;;10.13;3.05;;;;;;;;;;4991881;28;20062;-70
2022/05/21 12:16:33;;;;;;;9.05;2.80;;;;;;;;;;4990075;28;20057;-73
2022/05/21 12:19:03;;;;;;;6.80;3.13;;;;;;;;;;4990564;28;20064;-69
2022/05/21 12:21:37;;;;;;;4.07;2.35;;;;;;;;;;4973153;28;20081;-71
2022/05/21 12:24:23;;;;;;;9.43;2.35;;;;;;;;;;4993207;28;20066;-68
2022/05/21 12:27:27;;;;;;;6.38;3.20;;;;;;;;;;4995416;28;20182;-68
2022/05/21 12:30:00;;;;;;;4.47;2.55;;;;;;;;;;4996172;28;20042;-70
2022/05/21 12:32:32;;;;;;;5.10;2.30;;;;;;;;;;4994994;28;20057;-70
2022/05/21 12:35:23;;;;;;;7.28;2.15;;;;;;;;;;4995900;28;20050;-71
2022/05/21 12:38:43;;;;;;;8.50;2.47;;;;;;;;;;4978413;28;20508;-71
2022/05/21 12:41:26;;;;;;;9.23;3.60;;;;;;;;;;4911867;28;20064;-71
2022/05/21 12:43:55;;;;;;;13.35;4.13;;;;;;;;;;4995736;28;20615;-71
2022/05/21 12:46:37;;;;;;;5.87;3.10;;;;;;;;;;4994869;28;20808;-71
2022/05/21 12:49:10;;;;;;;5.18;2.40;;;;;;;;;;4996030;28;20401;-71
2022/05/21 12:51:42;;;;;;;303.08;28.65;;;;;;;;;;4978334;28;20109;-70
2022/05/21 12:54:21;;;;;;;25.70;4.88;;;;;;;;;;4978388;28;20042;-69
2022/05/21 12:56:50;;;;;;;6.50;2.75;;;;;;;;;;4994202;28;20057;-71
2022/05/21 12:59:19;;;;;;;8.73;2.78;;;;;;;;;;4978419;28;20077;-70
2022/05/21 13:02:17;;;;;;;12.02;1.92;;;;;;;;;;4994643;28;20109;-71
2022/05/21 13:04:49;;;;;;;7.70;2.75;;;;;;;;;;4970965;28;20170;-71
2022/05/21 13:07:27;;;;;;;4.17;2.70;;;;;;;;;;4995741;28;20058;-69
2022/05/21 13:09:57;;;;;;;6.22;2.30;;;;;;;;;;4996213;28;20042;-67
2022/05/21 13:12:26;;;;;;;9.27;2.88;;;;;;;;;;4995688;28;20070;-68
2022/05/21 13:14:53;;;;;;;11.50;2.50;;;;;;;;;;4995940;28;20056;-70
2022/05/21 13:17:35;;;;;;;4.93;2.47;;;;;;;;;;4991520;28;20046;-69
2022/05/21 13:20:37;;;;;;;5.43;2.42;;;;;;;;;;4991042;28;20050;-69
2022/05/21 13:23:22;;;;;;;7.97;2.72;;;;;;;;;;4994564;28;20079;-66
2022/05/21 13:25:53;;;;;;;;;;;;;;;;;;4977963;28;20050;-68
2022/05/21 13:28:32;;;;;;;8.25;3.25;;;;;;;;;;4993513;28;20017;-68
2022/05/21 13:30:59;;;;;;;5.03;2.15;;;;;;;;;;4994914;28;20088;-69
2022/05/21 13:33:37;;;;;;;10.25;4.70;;;;;;;;;;4994386;28;20532;-69
2022/05/21 13:36:08;;;;;;;7.40;2.80;;;;;;;;;;4975964;28;20397;-67
2022/05/21 13:38:39;;;;;;;7.00;2.65;;;;;;;;;;4994645;28;20054;-68
2022/05/21 13:41:11;;;;;;;6.30;2.90;;;;;;;;;;4995663;28;20050;-69
2022/05/21 13:43:59;;;;;;;6.32;2.90;;;;;;;;;;4994805;28;20112;-69
2022/05/21 13:46:34;;;;;;;10.23;3.28;;;;;;;;;;4993371;28;20456;-70
2022/05/21 13:49:08;;;;;;;4.78;2.40;;;;;;;;;;4977689;28;20049;-68
2022/05/21 13:51:37;;;;;;;7.60;2.80;;;;;;;;;;4994198;28;20046;-69
2022/05/21 13:54:06;;;;;;;6.55;2.75;;;;;;;;;;4994771;28;20057;-70
2022/05/21 13:56:45;;;;;;;4.85;2.65;;;;;;;;;;4994640;28;20456;-69
2022/05/21 13:59:20;;;;;;;6.30;3.13;;;;;;;;;;4978278;28;20501;-68
2022/05/21 14:01:56;;;;;;;4.88;2.30;;;;;;;;;;4993822;28;20062;-69
2022/05/21 14:04:35;;;;;;;7.18;2.47;;;;;;;;;;4993139;28;20046;-70
2022/05/21 14:07:04;;;;;;;10.13;3.42;;;;;;;;;;4993000;28;20054;-68
2022/05/21 14:09:45;;;;;;;8.43;4.00;;;;;;;;;;4994056;28;20042;-66
2022/05/21 14:12:44;;;;;;;11.90;3.35;;;;;;;;;;4994059;28;20042;-67
2022/05/21 14:15:26;;;;;;;6.82;2.85;;;;;;;;;;4938829;28;20051;-67
2022/05/21 14:18:04;;;;;;;9.80;2.90;;;;;;;;;;4976797;28;20046;-65
2022/05/21 14:20:37;;;;;;;7.68;2.80;;;;;;;;;;4993609;28;20034;-64
2022/05/21 14:23:23;;;;;;;3.88;2.88;;;;;;;;;;4994544;28;20057;-68
2022/05/21 14:26:33;;;;;;;5.30;2.47;;;;;;;;;;4992924;28;20046;-65
2022/05/21 14:29:30;;;;;;;7.60;3.50;;;;;;;;;;4976961;28;20450;-67
2022/05/21 14:32:40;;;;;;;5.30;3.80;;;;;;;;;;4993305;28;20046;-68
2022/05/21 14:35:16;;;;;;;6.47;3.10;;;;;;;;;;4966712;28;20062;-68
2022/05/21 14:37:47;;;;;;;10.57;2.95;;;;;;;;;;4994400;28;20057;-67
2022/05/21 14:40:17;;;;;;;5.57;3.15;;;;;;;;;;4993848;28;20056;-67
2022/05/21 14:42:48;;;;;;;5.50;2.75;;;;;;;;;;4989288;28;20519;-69
2022/05/21 14:45:18;;;;;;;10.07;3.80;;;;;;;;;;4994124;28;20038;-70
2022/05/21 14:47:53;;;;;;;10.70;3.40;;;;;;;;;;4976125;28;20046;-72
2022/05/21 14:53:11;;;;;;;9.93;3.13;;;;;;;;;;4985551;28;20050;-70
2022/05/21 14:55:40;;;;;;;4.18;2.58;;;;;;;;;;4992922;28;20050;-70
2022/05/21 14:58:09;;;;;;;9.02;2.90;;;;;;;;;;4986838;28;20043;-69
2022/05/21 15:00:38;;;;;;;9.07;3.30;;;;;;;;;;4989680;28;20058;-71
2022/05/21 15:03:07;;;;;;;9.60;3.25;;;;;;;;;;4992210;28;20075;-69
2022/05/21 15:05:39;;;;;;;12.80;4.65;;;;;;;;;;4992043;28;20412;-66
2022/05/21 15:08:11;;;;;;;7.82;3.45;;;;;;;;;;4992406;28;20061;-67
2022/05/21 15:10:42;;;;;;;9.85;3.35;;;;;;;;;;4993572;28;20523;-66
2022/05/21 15:13:11;;;;;;;8.60;3.42;;;;;;;;;;4994213;28;20048;-65
2022/05/21 15:15:39;;;;;;;11.35;3.05;;;;;;;;;;4993282;28;20070;-67
2022/05/21 15:18:08;;;;;;;7.13;3.85;;;;;;;;;;4976615;28;20053;-66
2022/05/21 15:20:38;;;;;;;9.88;3.28;;;;;;;;;;4993655;28;20067;-67
2022/05/21 15:23:08;;;;;;;9.82;2.90;;;;;;;;;;4993595;28;20082;-67
2022/05/21 15:25:38;;;;;;;11.05;3.22;;;;;;;;;;4993608;28;20050;-69
2022/05/21 15:28:07;;;;;;;4.95;2.88;;;;;;;;;;4994088;28;20050;-69
2022/05/21 15:30:36;;;;;;;9.35;3.10;;;;;;;;;;4993616;28;20046;-70
2022/05/21 15:33:04;;;;;;;8.80;3.30;;;;;;;;;;4992158;28;20042;-67
2022/05/21 15:35:33;;;;;;;9.00;3.45;;;;;;;;;;4976150;28;20561;-69
2022/05/21 15:38:05;;;;;;;10.52;2.92;;;;;;;;;;4992949;28;20054;-69
2022/05/21 15:40:34;;;;;;;10.20;4.03;;;;;;;;;;4994570;28;20073;-69
2022/05/21 15:43:04;;;;;;;8.20;3.03;;;;;;;;;;4976446;28;20425;-69
2022/05/21 15:45:33;;;;;;;10.63;3.33;;;;;;;;;;4992321;28;20054;-69
2022/05/21 15:48:04;;;;;;;9.50;3.20;;;;;;;;;;4991577;28;20051;-69
2022/05/21 15:50:32;;;;;;;8.85;3.05;;;;;;;;;;4992388;28;20042;-69
2022/05/21 15:53:03;;;;;;;7.35;2.80;;;;;;;;;;4991956;28;20050;-69
2022/05/21 15:55:32;;;;;;;7.95;3.40;;;;;;;;;;4991511;28;20046;-69